Time;durP1;ratioP1;P1;durP2;ratioP2;P2;SDS_P1;SDS_P2;PMS_P1;PMS_P2;Temp;Humidity;BMP_temperature;BMP_pressure;BME280_temperature;BME280_humidity;BME280_pressure;Samples;Min_cycle;Max_cycle;Signal;HPM_P1;HPM_P2
2022/05/17 00:00:49;;;;;;;6.45;4.65;;;;;;;13.77;91.05273;95762.42;;;;
2022/05/17 00:01:49;;;;;;;6.45;4.65;;;;;;;13.77;91.05273;95762.42;;;;
2022/05/17 00:02:50;;;;;;;6.45;4.65;;;;;;;13.77;91.05273;95762.42;;;;
2022/05/17 00:03:50;;;;;;;6.45;4.65;;;;;;;13.77;91.05273;95762.42;;;;
2022/05/17 00:04:51;;;;;;;7.25;4.849999;;;;;;;13.64;90.97168;95765.2;;;;
2022/05/17 00:05:52;;;;;;;7.25;4.849999;;;;;;;13.64;90.97168;95765.2;;;;
2022/05/17 00:06:53;;;;;;;7.25;4.849999;;;;;;;13.64;90.97168;95765.2;;;;
2022/05/17 00:07:53;;;;;;;7.25;4.849999;;;;;;;13.64;90.97168;95765.2;;;;
2022/05/17 00:08:54;;;;;;;7.25;4.849999;;;;;;;13.64;90.97168;95765.2;;;;
2022/05/17 00:09:55;;;;;;;7.25;4.849999;;;;;;;13.64;90.97168;95765.2;;;;
2022/05/17 00:10:55;;;;;;;7.25;4.849999;;;;;;;13.64;90.97168;95765.2;;;;
2022/05/17 00:11:56;;;;;;;7.25;4.849999;;;;;;;13.64;90.97168;95765.2;;;;
2022/05/17 00:12:57;;;;;;;7.25;4.849999;;;;;;;13.64;90.97168;95765.2;;;;
2022/05/17 00:13:57;;;;;;;7.25;4.849999;;;;;;;13.64;90.97168;95765.2;;;;
2022/05/17 00:14:59;;;;;;;6.599999;5;;;;;;;13.58;91.16504;95756.79;;;;
2022/05/17 00:15:59;;;;;;;6.599999;5;;;;;;;13.58;91.16504;95756.79;;;;
2022/05/17 00:17:00;;;;;;;6.599999;5;;;;;;;13.58;91.16504;95756.79;;;;
2022/05/17 00:18:02;;;;;;;6.599999;5;;;;;;;13.58;91.16504;95756.79;;;;
2022/05/17 00:19:03;;;;;;;6.599999;5;;;;;;;13.58;91.16504;95756.79;;;;
2022/05/17 00:20:04;;;;;;;6.599999;5;;;;;;;13.58;91.16504;95756.79;;;;
2022/05/17 00:21:06;;;;;;;6.599999;5;;;;;;;13.58;91.16504;95756.79;;;;
2022/05/17 00:22:08;;;;;;;6.599999;5;;;;;;;13.58;91.16504;95756.79;;;;
2022/05/17 00:23:08;;;;;;;6.599999;5;;;;;;;13.58;91.16504;95756.79;;;;
2022/05/17 00:24:10;;;;;;;6.599999;5;;;;;;;13.58;91.16504;95756.79;;;;
2022/05/17 00:25:11;;;;;;;6.599999;5;;;;;;;13.58;91.16504;95756.79;;;;
2022/05/17 00:26:16;;;;;;;6.599999;5;;;;;;;13.58;91.16504;95756.79;;;;
2022/05/17 00:27:16;;;;;;;6.599999;5;;;;;;;13.58;91.16504;95756.79;;;;
2022/05/17 00:28:19;;;;;;;6.599999;5;;;;;;;13.58;91.16504;95756.79;;;;
2022/05/17 00:29:20;;;;;;;6.599999;5;;;;;;;13.58;91.16504;95756.79;;;;
2022/05/17 00:30:21;;;;;;;6.599999;5;;;;;;;13.58;91.16504;95756.79;;;;
2022/05/17 00:31:22;;;;;;;6.599999;5;;;;;;;13.58;91.16504;95756.79;;;;
2022/05/17 00:32:23;;;;;;;6.599999;5;;;;;;;13.58;91.16504;95756.79;;;;
2022/05/17 00:33:23;;;;;;;6.599999;5;;;;;;;13.58;91.16504;95756.79;;;;
2022/05/17 00:34:24;;;;;;;6.599999;5;;;;;;;13.58;91.16504;95756.79;;;;
2022/05/17 00:35:25;;;;;;;6.599999;5;;;;;;;13.58;91.16504;95756.79;;;;
2022/05/17 00:36:25;;;;;;;9.000002;5.75;;;;;;;13.59;91.5332;95759.74;;;;
2022/05/17 00:37:26;;;;;;;9.000002;5.75;;;;;;;13.59;91.5332;95759.74;;;;
2022/05/17 00:38:27;;;;;;;9.000002;5.75;;;;;;;13.59;91.5332;95759.74;;;;
2022/05/17 00:39:27;;;;;;;9.000002;5.75;;;;;;;13.59;91.5332;95759.74;;;;
2022/05/17 00:40:28;;;;;;;9.000002;5.75;;;;;;;13.59;91.5332;95759.74;;;;
2022/05/17 00:41:29;;;;;;;9.000002;5.75;;;;;;;13.59;91.5332;95759.74;;;;
2022/05/17 00:42:29;;;;;;;9.000002;5.75;;;;;;;13.59;91.5332;95759.74;;;;
2022/05/17 00:43:30;;;;;;;9.000002;5.75;;;;;;;13.59;91.5332;95759.74;;;;
2022/05/17 00:44:49;;;;;;;9.000002;5.75;;;;;;;13.59;91.5332;95759.74;;;;
2022/05/17 00:45:49;;;;;;;9.000002;5.75;;;;;;;13.59;91.5332;95759.74;;;;
2022/05/17 00:46:50;;;;;;;9.000002;5.75;;;;;;;13.59;91.5332;95759.74;;;;
2022/05/17 00:48:04;;;;;;;9.000002;5.75;;;;;;;13.59;91.5332;95759.74;;;;
2022/05/17 00:49:06;;;;;;;9.000002;5.75;;;;;;;13.59;91.5332;95759.74;;;;
2022/05/17 00:50:11;;;;;;;9.000002;5.75;;;;;;;13.59;91.5332;95759.74;;;;
2022/05/17 00:51:19;;;;;;;9.000002;5.75;;;;;;;13.59;91.5332;95759.74;;;;
2022/05/17 00:52:25;;;;;;;9.000002;5.75;;;;;;;13.59;91.5332;95759.74;;;;
2022/05/17 00:53:31;;;;;;;9.000002;5.75;;;;;;;13.59;91.5332;95759.74;;;;
2022/05/17 00:54:34;;;;;;;9.000002;5.75;;;;;;;13.59;91.5332;95759.74;;;;
2022/05/17 00:55:36;;;;;;;9.000002;5.75;;;;;;;13.59;91.5332;95759.74;;;;
2022/05/17 00:56:42;;;;;;;9.000002;5.75;;;;;;;13.59;91.5332;95759.74;;;;
2022/05/17 00:57:49;;;;;;;11.2;6.05;;;;;;;13.63;91.74805;95748.99;;;;
2022/05/17 00:58:54;;;;;;;11.2;6.05;;;;;;;13.63;91.74805;95748.99;;;;
2022/05/17 00:59:59;;;;;;;11.2;6.05;;;;;;;13.63;91.74805;95748.99;;;;
2022/05/17 01:01:04;;;;;;;11.2;6.05;;;;;;;13.63;91.74805;95748.99;;;;
2022/05/17 01:02:09;;;;;;;11.2;6.05;;;;;;;13.63;91.74805;95748.99;;;;
2022/05/17 01:03:10;;;;;;;11.2;6.05;;;;;;;13.63;91.74805;95748.99;;;;
2022/05/17 01:04:16;;;;;;;11.2;6.05;;;;;;;13.63;91.74805;95748.99;;;;
2022/05/17 01:05:19;;;;;;;11.2;6.05;;;;;;;13.63;91.74805;95748.99;;;;
2022/05/17 01:06:20;;;;;;;11.2;6.05;;;;;;;13.63;91.74805;95748.99;;;;
2022/05/17 01:07:22;;;;;;;11.2;6.05;;;;;;;13.63;91.74805;95748.99;;;;
2022/05/17 01:08:28;;;;;;;6.849999;5.45;;;;;;;13.67;91.91699;95752.81;;;;
2022/05/17 01:09:29;;;;;;;6.849999;5.45;;;;;;;13.67;91.91699;95752.81;;;;
2022/05/17 01:10:29;;;;;;;6.849999;5.45;;;;;;;13.67;91.91699;95752.81;;;;
2022/05/17 01:11:31;;;;;;;6.849999;5.45;;;;;;;13.67;91.91699;95752.81;;;;
2022/05/17 01:12:31;;;;;;;6.849999;5.45;;;;;;;13.67;91.91699;95752.81;;;;
2022/05/17 01:18:47;;;;;;;8.15;5.85;;;;;;;13.69;91.94434;95756.89;;;;
2022/05/17 01:19:49;;;;;;;8.15;5.85;;;;;;;13.69;91.94434;95756.89;;;;
2022/05/17 01:20:50;;;;;;;8.15;5.85;;;;;;;13.69;91.94434;95756.89;;;;
2022/05/17 01:21:51;;;;;;;8.15;5.85;;;;;;;13.69;91.94434;95756.89;;;;
2022/05/17 01:22:51;;;;;;;8.15;5.85;;;;;;;13.69;91.94434;95756.89;;;;
2022/05/17 01:23:52;;;;;;;8.15;5.85;;;;;;;13.69;91.94434;95756.89;;;;
2022/05/17 01:24:52;;;;;;;8.15;5.85;;;;;;;13.69;91.94434;95756.89;;;;
2022/05/17 01:25:53;;;;;;;8.15;5.85;;;;;;;13.69;91.94434;95756.89;;;;
2022/05/17 01:26:54;;;;;;;8.15;5.85;;;;;;;13.69;91.94434;95756.89;;;;
2022/05/17 01:27:58;;;;;;;8.15;5.85;;;;;;;13.69;91.94434;95756.89;;;;
2022/05/17 01:29:05;;;;;;;8.15;5.85;;;;;;;13.69;91.94434;95756.89;;;;
2022/05/17 01:30:05;;;;;;;8.6;5.6;;;;;;;13.75;92.00781;95747.2;;;;
2022/05/17 01:31:14;;;;;;;8.6;5.6;;;;;;;13.75;92.00781;95747.2;;;;
2022/05/17 01:32:15;;;;;;;8.6;5.6;;;;;;;13.75;92.00781;95747.2;;;;
2022/05/17 01:33:16;;;;;;;8.6;5.6;;;;;;;13.75;92.00781;95747.2;;;;
2022/05/17 01:34:19;;;;;;;8.6;5.6;;;;;;;13.75;92.00781;95747.2;;;;
2022/05/17 01:35:19;;;;;;;8.6;5.6;;;;;;;13.75;92.00781;95747.2;;;;
2022/05/17 01:36:22;;;;;;;8.6;5.6;;;;;;;13.75;92.00781;95747.2;;;;
2022/05/17 01:37:23;;;;;;;8.6;5.6;;;;;;;13.75;92.00781;95747.2;;;;
2022/05/17 01:38:23;;;;;;;8.6;5.6;;;;;;;13.75;92.00781;95747.2;;;;
2022/05/17 01:39:24;;;;;;;8.6;5.6;;;;;;;13.75;92.00781;95747.2;;;;
2022/05/17 01:40:24;;;;;;;8.549999;5.95;;;;;;;13.76;91.88086;95748.44;;;;
2022/05/17 01:41:26;;;;;;;8.549999;5.95;;;;;;;13.76;91.88086;95748.44;;;;
2022/05/17 01:42:27;;;;;;;8.549999;5.95;;;;;;;13.76;91.88086;95748.44;;;;
2022/05/17 01:43:27;;;;;;;8.549999;5.95;;;;;;;13.76;91.88086;95748.44;;;;
2022/05/17 01:44:28;;;;;;;8.549999;5.95;;;;;;;13.76;91.88086;95748.44;;;;
2022/05/17 01:45:28;;;;;;;8.549999;5.95;;;;;;;13.76;91.88086;95748.44;;;;
2022/05/17 01:46:29;;;;;;;8.549999;5.95;;;;;;;13.76;91.88086;95748.44;;;;
2022/05/17 01:47:29;;;;;;;8.549999;5.95;;;;;;;13.76;91.88086;95748.44;;;;
2022/05/17 01:48:30;;;;;;;8.549999;5.95;;;;;;;13.76;91.88086;95748.44;;;;
2022/05/17 01:49:30;;;;;;;8.549999;5.95;;;;;;;13.76;91.88086;95748.44;;;;
2022/05/17 01:50:31;;;;;;;8.549999;5.95;;;;;;;13.76;91.88086;95748.44;;;;
2022/05/17 01:51:32;;;;;;;8.45;5.800001;;;;;;;13.74;91.88965;95746.01;;;;
2022/05/17 01:52:32;;;;;;;8.45;5.800001;;;;;;;13.74;91.88965;95746.01;;;;
2022/05/17 01:53:33;;;;;;;8.45;5.800001;;;;;;;13.74;91.88965;95746.01;;;;
2022/05/17 01:54:33;;;;;;;8.45;5.800001;;;;;;;13.74;91.88965;95746.01;;;;
2022/05/17 01:55:34;;;;;;;8.45;5.800001;;;;;;;13.74;91.88965;95746.01;;;;
2022/05/17 01:56:35;;;;;;;8.45;5.800001;;;;;;;13.74;91.88965;95746.01;;;;
2022/05/17 01:57:35;;;;;;;8.45;5.800001;;;;;;;13.74;91.88965;95746.01;;;;
2022/05/17 01:58:35;;;;;;;8.45;5.800001;;;;;;;13.74;91.88965;95746.01;;;;
2022/05/17 01:59:37;;;;;;;8.45;5.800001;;;;;;;13.74;91.88965;95746.01;;;;
2022/05/17 02:00:37;;;;;;;8.45;5.800001;;;;;;;13.74;91.88965;95746.01;;;;
2022/05/17 02:01:38;;;;;;;6.849999;5.7;;;;;;;13.67;91.89746;95739.01;;;;
2022/05/17 02:02:39;;;;;;;6.849999;5.7;;;;;;;13.67;91.89746;95739.01;;;;
2022/05/17 02:03:39;;;;;;;6.849999;5.7;;;;;;;13.67;91.89746;95739.01;;;;
2022/05/17 02:04:40;;;;;;;6.849999;5.7;;;;;;;13.67;91.89746;95739.01;;;;
2022/05/17 02:05:40;;;;;;;6.849999;5.7;;;;;;;13.67;91.89746;95739.01;;;;
2022/05/17 02:06:42;;;;;;;6.849999;5.7;;;;;;;13.67;91.89746;95739.01;;;;
2022/05/17 02:07:42;;;;;;;6.849999;5.7;;;;;;;13.67;91.89746;95739.01;;;;
2022/05/17 02:08:43;;;;;;;6.849999;5.7;;;;;;;13.67;91.89746;95739.01;;;;
2022/05/17 02:09:43;;;;;;;6.849999;5.7;;;;;;;13.67;91.89746;95739.01;;;;
2022/05/17 02:10:44;;;;;;;6.849999;5.7;;;;;;;13.67;91.89746;95739.01;;;;
2022/05/17 02:11:45;;;;;;;6.849999;5.7;;;;;;;13.67;91.89746;95739.01;;;;
2022/05/17 02:12:45;;;;;;;8.549999;6.1;;;;;;;13.67;92.08105;95745.65;;;;
2022/05/17 02:13:46;;;;;;;8.549999;6.1;;;;;;;13.67;92.08105;95745.65;;;;
2022/05/17 02:14:46;;;;;;;8.549999;6.1;;;;;;;13.67;92.08105;95745.65;;;;
2022/05/17 02:15:47;;;;;;;8.549999;6.1;;;;;;;13.67;92.08105;95745.65;;;;
2022/05/17 02:16:48;;;;;;;8.549999;6.1;;;;;;;13.67;92.08105;95745.65;;;;
2022/05/17 02:17:48;;;;;;;8.549999;6.1;;;;;;;13.67;92.08105;95745.65;;;;
2022/05/17 02:18:50;;;;;;;8.549999;6.1;;;;;;;13.67;92.08105;95745.65;;;;
2022/05/17 02:19:50;;;;;;;8.549999;6.1;;;;;;;13.67;92.08105;95745.65;;;;
2022/05/17 02:20:51;;;;;;;8.549999;6.1;;;;;;;13.67;92.08105;95745.65;;;;
2022/05/17 02:21:51;;;;;;;8.549999;6.1;;;;;;;13.67;92.08105;95745.65;;;;
2022/05/17 02:22:52;;;;;;;6.9;5.95;;;;;;;13.61;92;95737.75;;;;
2022/05/17 02:23:52;;;;;;;6.9;5.95;;;;;;;13.61;92;95737.75;;;;
2022/05/17 02:24:53;;;;;;;6.9;5.95;;;;;;;13.61;92;95737.75;;;;
2022/05/17 02:25:53;;;;;;;6.9;5.95;;;;;;;13.61;92;95737.75;;;;
2022/05/17 02:26:54;;;;;;;6.9;5.95;;;;;;;13.61;92;95737.75;;;;
2022/05/17 02:27:55;;;;;;;6.9;5.95;;;;;;;13.61;92;95737.75;;;;
2022/05/17 02:28:55;;;;;;;6.9;5.95;;;;;;;13.61;92;95737.75;;;;
2022/05/17 02:29:56;;;;;;;6.9;5.95;;;;;;;13.61;92;95737.75;;;;
2022/05/17 02:30:57;;;;;;;6.9;5.95;;;;;;;13.61;92;95737.75;;;;
2022/05/17 02:31:57;;;;;;;6.9;5.95;;;;;;;13.61;92;95737.75;;;;
2022/05/17 02:32:58;;;;;;;6.9;5.95;;;;;;;13.61;92;95737.75;;;;
2022/05/17 02:33:58;;;;;;;7.9;6.5;;;;;;;13.57;92.1543;95744.93;;;;
2022/05/17 02:34:59;;;;;;;7.9;6.5;;;;;;;13.57;92.1543;95744.93;;;;
2022/05/17 02:36:00;;;;;;;7.9;6.5;;;;;;;13.57;92.1543;95744.93;;;;
2022/05/17 02:37:00;;;;;;;7.9;6.5;;;;;;;13.57;92.1543;95744.93;;;;
2022/05/17 02:38:01;;;;;;;7.9;6.5;;;;;;;13.57;92.1543;95744.93;;;;
2022/05/17 02:39:01;;;;;;;7.9;6.5;;;;;;;13.57;92.1543;95744.93;;;;
2022/05/17 02:40:02;;;;;;;7.9;6.5;;;;;;;13.57;92.1543;95744.93;;;;
2022/05/17 02:41:03;;;;;;;7.9;6.5;;;;;;;13.57;92.1543;95744.93;;;;
2022/05/17 02:42:04;;;;;;;7.9;6.5;;;;;;;13.57;92.1543;95744.93;;;;
2022/05/17 02:43:05;;;;;;;7.9;6.5;;;;;;;13.57;92.1543;95744.93;;;;
2022/05/17 02:44:06;;;;;;;7.799999;6.2;;;;;;;13.45;92.06445;95747.61;;;;
2022/05/17 02:45:07;;;;;;;7.799999;6.2;;;;;;;13.45;92.06445;95747.61;;;;
2022/05/17 02:46:08;;;;;;;7.799999;6.2;;;;;;;13.45;92.06445;95747.61;;;;
2022/05/17 02:47:08;;;;;;;7.799999;6.2;;;;;;;13.45;92.06445;95747.61;;;;
2022/05/17 02:48:10;;;;;;;7.799999;6.2;;;;;;;13.45;92.06445;95747.61;;;;
2022/05/17 02:49:10;;;;;;;7.799999;6.2;;;;;;;13.45;92.06445;95747.61;;;;
2022/05/17 02:50:11;;;;;;;7.799999;6.2;;;;;;;13.45;92.06445;95747.61;;;;
2022/05/17 02:51:12;;;;;;;7.799999;6.2;;;;;;;13.45;92.06445;95747.61;;;;
2022/05/17 02:52:15;;;;;;;7.799999;6.2;;;;;;;13.45;92.06445;95747.61;;;;
2022/05/17 02:53:16;;;;;;;7.799999;6.2;;;;;;;13.45;92.06445;95747.61;;;;
2022/05/17 02:54:16;;;;;;;7.799999;6.2;;;;;;;13.45;92.06445;95747.61;;;;
2022/05/17 02:55:17;;;;;;;8.049999;6.2;;;;;;;13.27;92.13477;95759.92;;;;
2022/05/17 02:56:18;;;;;;;8.049999;6.2;;;;;;;13.27;92.13477;95759.92;;;;
2022/05/17 02:57:18;;;;;;;8.049999;6.2;;;;;;;13.27;92.13477;95759.92;;;;
2022/05/17 02:58:18;;;;;;;8.049999;6.2;;;;;;;13.27;92.13477;95759.92;;;;
2022/05/17 02:59:19;;;;;;;8.049999;6.2;;;;;;;13.27;92.13477;95759.92;;;;
2022/05/17 03:00:20;;;;;;;8.049999;6.2;;;;;;;13.27;92.13477;95759.92;;;;
2022/05/17 03:01:21;;;;;;;8.049999;6.2;;;;;;;13.27;92.13477;95759.92;;;;
2022/05/17 03:02:21;;;;;;;8.049999;6.2;;;;;;;13.27;92.13477;95759.92;;;;
2022/05/17 03:03:22;;;;;;;8.049999;6.2;;;;;;;13.27;92.13477;95759.92;;;;
2022/05/17 03:04:23;;;;;;;8.049999;6.2;;;;;;;13.27;92.13477;95759.92;;;;
2022/05/17 03:05:23;;;;;;;8.599999;6.7;;;;;;;13.08;92.1709;95765.25;;;;
2022/05/17 03:06:24;;;;;;;8.599999;6.7;;;;;;;13.08;92.1709;95765.25;;;;
2022/05/17 03:07:25;;;;;;;8.599999;6.7;;;;;;;13.08;92.1709;95765.25;;;;
2022/05/17 03:08:25;;;;;;;8.599999;6.7;;;;;;;13.08;92.1709;95765.25;;;;
2022/05/17 03:09:26;;;;;;;8.599999;6.7;;;;;;;13.08;92.1709;95765.25;;;;
2022/05/17 03:10:26;;;;;;;8.599999;6.7;;;;;;;13.08;92.1709;95765.25;;;;
2022/05/17 03:11:27;;;;;;;8.599999;6.7;;;;;;;13.08;92.1709;95765.25;;;;
2022/05/17 03:12:27;;;;;;;8.599999;6.7;;;;;;;13.08;92.1709;95765.25;;;;
2022/05/17 03:13:28;;;;;;;8.599999;6.7;;;;;;;13.08;92.1709;95765.25;;;;
2022/05/17 03:14:28;;;;;;;8.599999;6.7;;;;;;;13.08;92.1709;95765.25;;;;
2022/05/17 03:15:29;;;;;;;8.599999;6.7;;;;;;;13.08;92.1709;95765.25;;;;
2022/05/17 03:16:30;;;;;;;9.65;6.299999;;;;;;;12.84;92.1543;95766.41;;;;
2022/05/17 03:17:32;;;;;;;9.65;6.299999;;;;;;;12.84;92.1543;95766.41;;;;
2022/05/17 03:18:33;;;;;;;9.65;6.299999;;;;;;;12.84;92.1543;95766.41;;;;
2022/05/17 03:19:33;;;;;;;9.65;6.299999;;;;;;;12.84;92.1543;95766.41;;;;
2022/05/17 03:20:34;;;;;;;9.65;6.299999;;;;;;;12.84;92.1543;95766.41;;;;
2022/05/17 03:21:34;;;;;;;9.65;6.299999;;;;;;;12.84;92.1543;95766.41;;;;
2022/05/17 03:22:36;;;;;;;9.65;6.299999;;;;;;;12.84;92.1543;95766.41;;;;
2022/05/17 03:23:36;;;;;;;9.65;6.299999;;;;;;;12.84;92.1543;95766.41;;;;
2022/05/17 03:24:37;;;;;;;9.65;6.299999;;;;;;;12.84;92.1543;95766.41;;;;
2022/05/17 03:25:38;;;;;;;9.65;6.299999;;;;;;;12.84;92.1543;95766.41;;;;
2022/05/17 03:26:39;;;;;;;8.849999;6.8;;;;;;;12.69;92.21777;95776.11;;;;
2022/05/17 03:27:39;;;;;;;8.849999;6.8;;;;;;;12.69;92.21777;95776.11;;;;
2022/05/17 03:28:40;;;;;;;8.849999;6.8;;;;;;;12.69;92.21777;95776.11;;;;
2022/05/17 03:29:40;;;;;;;8.849999;6.8;;;;;;;12.69;92.21777;95776.11;;;;
2022/05/17 03:30:41;;;;;;;8.849999;6.8;;;;;;;12.69;92.21777;95776.11;;;;
2022/05/17 03:31:42;;;;;;;8.849999;6.8;;;;;;;12.69;92.21777;95776.11;;;;
2022/05/17 03:32:42;;;;;;;8.849999;6.8;;;;;;;12.69;92.21777;95776.11;;;;
2022/05/17 03:33:43;;;;;;;8.849999;6.8;;;;;;;12.69;92.21777;95776.11;;;;
2022/05/17 03:34:44;;;;;;;8.849999;6.8;;;;;;;12.69;92.21777;95776.11;;;;
2022/05/17 03:35:44;;;;;;;8.849999;6.8;;;;;;;12.69;92.21777;95776.11;;;;
2022/05/17 03:36:45;;;;;;;8.849999;6.8;;;;;;;12.69;92.21777;95776.11;;;;
2022/05/17 03:37:46;;;;;;;11;7.4;;;;;;;12.48;92.07813;95784.38;;;;
2022/05/17 03:38:46;;;;;;;11;7.4;;;;;;;12.48;92.07813;95784.38;;;;
2022/05/17 03:39:47;;;;;;;11;7.4;;;;;;;12.48;92.07813;95784.38;;;;
2022/05/17 03:40:47;;;;;;;11;7.4;;;;;;;12.48;92.07813;95784.38;;;;
2022/05/17 03:41:48;;;;;;;11;7.4;;;;;;;12.48;92.07813;95784.38;;;;
2022/05/17 03:42:48;;;;;;;11;7.4;;;;;;;12.48;92.07813;95784.38;;;;
2022/05/17 03:43:49;;;;;;;11;7.4;;;;;;;12.48;92.07813;95784.38;;;;
2022/05/17 03:44:49;;;;;;;11;7.4;;;;;;;12.48;92.07813;95784.38;;;;
2022/05/17 03:45:50;;;;;;;11;7.4;;;;;;;12.48;92.07813;95784.38;;;;
2022/05/17 03:46:51;;;;;;;11;7.4;;;;;;;12.48;92.07813;95784.38;;;;
2022/05/17 03:47:51;;;;;;;11;7.4;;;;;;;12.48;92.07813;95784.38;;;;
2022/05/17 03:48:52;;;;;;;9.150002;7.7;;;;;;;12.29;92.2959;95785.25;;;;
2022/05/17 03:49:52;;;;;;;9.150002;7.7;;;;;;;12.29;92.2959;95785.25;;;;
2022/05/17 03:50:53;;;;;;;9.150002;7.7;;;;;;;12.29;92.2959;95785.25;;;;
2022/05/17 03:51:54;;;;;;;9.150002;7.7;;;;;;;12.29;92.2959;95785.25;;;;
2022/05/17 03:52:55;;;;;;;9.150002;7.7;;;;;;;12.29;92.2959;95785.25;;;;
2022/05/17 03:53:56;;;;;;;9.150002;7.7;;;;;;;12.29;92.2959;95785.25;;;;
2022/05/17 03:54:56;;;;;;;9.150002;7.7;;;;;;;12.29;92.2959;95785.25;;;;
2022/05/17 03:55:58;;;;;;;9.150002;7.7;;;;;;;12.29;92.2959;95785.25;;;;
2022/05/17 03:56:59;;;;;;;9.150002;7.7;;;;;;;12.29;92.2959;95785.25;;;;
2022/05/17 03:57:59;;;;;;;9.150002;7.7;;;;;;;12.29;92.2959;95785.25;;;;
2022/05/17 03:59:00;;;;;;;9.700001;7.900001;;;;;;;12.19;92.54297;95794.18;;;;
2022/05/17 04:00:01;;;;;;;9.700001;7.900001;;;;;;;12.19;92.54297;95794.18;;;;
2022/05/17 04:01:03;;;;;;;9.700001;7.900001;;;;;;;12.19;92.54297;95794.18;;;;
2022/05/17 04:02:05;;;;;;;9.700001;7.900001;;;;;;;12.19;92.54297;95794.18;;;;
2022/05/17 04:03:05;;;;;;;9.700001;7.900001;;;;;;;12.19;92.54297;95794.18;;;;
2022/05/17 04:04:06;;;;;;;9.700001;7.900001;;;;;;;12.19;92.54297;95794.18;;;;
2022/05/17 04:05:06;;;;;;;9.700001;7.900001;;;;;;;12.19;92.54297;95794.18;;;;
2022/05/17 04:06:08;;;;;;;9.700001;7.900001;;;;;;;12.19;92.54297;95794.18;;;;
2022/05/17 04:07:09;;;;;;;9.700001;7.900001;;;;;;;12.19;92.54297;95794.18;;;;
2022/05/17 04:08:10;;;;;;;9.700001;7.900001;;;;;;;12.19;92.54297;95794.18;;;;
2022/05/17 04:09:10;;;;;;;9.700001;7.900001;;;;;;;12.19;92.54297;95794.18;;;;
2022/05/17 04:10:11;;;;;;;10.35;8.200002;;;;;;;12.14;92.70508;95798.75;;;;
2022/05/17 04:11:15;;;;;;;10.35;8.200002;;;;;;;12.14;92.70508;95798.75;;;;
2022/05/17 04:12:16;;;;;;;10.35;8.200002;;;;;;;12.14;92.70508;95798.75;;;;
2022/05/17 04:13:16;;;;;;;10.35;8.200002;;;;;;;12.14;92.70508;95798.75;;;;
2022/05/17 04:14:17;;;;;;;10.35;8.200002;;;;;;;12.14;92.70508;95798.75;;;;
2022/05/17 04:15:17;;;;;;;10.35;8.200002;;;;;;;12.14;92.70508;95798.75;;;;
2022/05/17 04:16:21;;;;;;;10.35;8.200002;;;;;;;12.14;92.70508;95798.75;;;;
2022/05/17 04:17:21;;;;;;;10.35;8.200002;;;;;;;12.14;92.70508;95798.75;;;;
2022/05/17 04:18:22;;;;;;;10.35;8.200002;;;;;;;12.14;92.70508;95798.75;;;;
2022/05/17 04:19:23;;;;;;;10.35;8.200002;;;;;;;12.14;92.70508;95798.75;;;;
2022/05/17 04:20:24;;;;;;;11.4;8.700001;;;;;;;12.13;92.79785;95806.5;;;;
2022/05/17 04:21:25;;;;;;;11.4;8.700001;;;;;;;12.13;92.79785;95806.5;;;;
2022/05/17 04:22:26;;;;;;;11.4;8.700001;;;;;;;12.13;92.79785;95806.5;;;;
2022/05/17 04:23:27;;;;;;;11.4;8.700001;;;;;;;12.13;92.79785;95806.5;;;;
2022/05/17 04:24:28;;;;;;;11.4;8.700001;;;;;;;12.13;92.79785;95806.5;;;;
2022/05/17 04:25:28;;;;;;;11.4;8.700001;;;;;;;12.13;92.79785;95806.5;;;;
2022/05/17 04:26:29;;;;;;;11.4;8.700001;;;;;;;12.13;92.79785;95806.5;;;;
2022/05/17 04:27:30;;;;;;;11.4;8.700001;;;;;;;12.13;92.79785;95806.5;;;;
2022/05/17 04:28:30;;;;;;;11.4;8.700001;;;;;;;12.13;92.79785;95806.5;;;;
2022/05/17 04:29:31;;;;;;;11.4;8.700001;;;;;;;12.13;92.79785;95806.5;;;;
2022/05/17 04:30:32;;;;;;;11.4;8.700001;;;;;;;12.13;92.79785;95806.5;;;;
2022/05/17 04:31:33;;;;;;;9.199999;8.2;;;;;;;12.12;92.86035;95809.28;;;;
2022/05/17 04:32:34;;;;;;;9.199999;8.2;;;;;;;12.12;92.86035;95809.28;;;;
2022/05/17 04:33:35;;;;;;;9.199999;8.2;;;;;;;12.12;92.86035;95809.28;;;;
2022/05/17 04:34:35;;;;;;;9.199999;8.2;;;;;;;12.12;92.86035;95809.28;;;;
2022/05/17 04:35:36;;;;;;;9.199999;8.2;;;;;;;12.12;92.86035;95809.28;;;;
2022/05/17 04:36:36;;;;;;;9.199999;8.2;;;;;;;12.12;92.86035;95809.28;;;;
2022/05/17 04:37:37;;;;;;;9.199999;8.2;;;;;;;12.12;92.86035;95809.28;;;;
2022/05/17 04:38:38;;;;;;;9.199999;8.2;;;;;;;12.12;92.86035;95809.28;;;;
2022/05/17 04:39:38;;;;;;;9.199999;8.2;;;;;;;12.12;92.86035;95809.28;;;;
2022/05/17 04:40:41;;;;;;;9.199999;8.2;;;;;;;12.12;92.86035;95809.28;;;;
2022/05/17 04:41:43;;;;;;;11.4;9.25;;;;;;;12.17;93.01172;95817.42;;;;
2022/05/17 04:42:44;;;;;;;11.4;9.25;;;;;;;12.17;93.01172;95817.42;;;;
2022/05/17 04:43:44;;;;;;;11.4;9.25;;;;;;;12.17;93.01172;95817.42;;;;
2022/05/17 04:44:45;;;;;;;11.4;9.25;;;;;;;12.17;93.01172;95817.42;;;;
2022/05/17 04:45:45;;;;;;;11.4;9.25;;;;;;;12.17;93.01172;95817.42;;;;
2022/05/17 04:46:46;;;;;;;11.4;9.25;;;;;;;12.17;93.01172;95817.42;;;;
2022/05/17 04:47:47;;;;;;;11.4;9.25;;;;;;;12.17;93.01172;95817.42;;;;
2022/05/17 04:48:47;;;;;;;11.4;9.25;;;;;;;12.17;93.01172;95817.42;;;;
2022/05/17 04:49:48;;;;;;;11.4;9.25;;;;;;;12.17;93.01172;95817.42;;;;
2022/05/17 04:50:48;;;;;;;11.4;9.25;;;;;;;12.17;93.01172;95817.42;;;;
2022/05/17 04:51:49;;;;;;;11.4;9.25;;;;;;;12.17;93.01172;95817.42;;;;
2022/05/17 04:52:50;;;;;;;9.599999;8.599999;;;;;;;12.27;93.19434;95827.87;;;;
2022/05/17 04:53:51;;;;;;;9.599999;8.599999;;;;;;;12.27;93.19434;95827.87;;;;
2022/05/17 04:54:51;;;;;;;9.599999;8.599999;;;;;;;12.27;93.19434;95827.87;;;;
2022/05/17 04:55:52;;;;;;;9.599999;8.599999;;;;;;;12.27;93.19434;95827.87;;;;
2022/05/17 04:56:52;;;;;;;9.599999;8.599999;;;;;;;12.27;93.19434;95827.87;;;;
2022/05/17 04:57:53;;;;;;;9.599999;8.599999;;;;;;;12.27;93.19434;95827.87;;;;
2022/05/17 04:58:55;;;;;;;9.599999;8.599999;;;;;;;12.27;93.19434;95827.87;;;;
2022/05/17 04:59:57;;;;;;;9.599999;8.599999;;;;;;;12.27;93.19434;95827.87;;;;
2022/05/17 05:00:57;;;;;;;9.599999;8.599999;;;;;;;12.27;93.19434;95827.87;;;;
2022/05/17 05:01:58;;;;;;;9.599999;8.599999;;;;;;;12.27;93.19434;95827.87;;;;
2022/05/17 05:02:59;;;;;;;11.15;9.550001;;;;;;;12.39;93.31543;95832.44;;;;
2022/05/17 05:03:59;;;;;;;11.15;9.550001;;;;;;;12.39;93.31543;95832.44;;;;
2022/05/17 05:05:00;;;;;;;11.15;9.550001;;;;;;;12.39;93.31543;95832.44;;;;
2022/05/17 05:06:00;;;;;;;11.15;9.550001;;;;;;;12.39;93.31543;95832.44;;;;
2022/05/17 05:07:01;;;;;;;11.15;9.550001;;;;;;;12.39;93.31543;95832.44;;;;
2022/05/17 05:08:01;;;;;;;11.15;9.550001;;;;;;;12.39;93.31543;95832.44;;;;
2022/05/17 05:09:02;;;;;;;11.15;9.550001;;;;;;;12.39;93.31543;95832.44;;;;
2022/05/17 05:10:03;;;;;;;11.15;9.550001;;;;;;;12.39;93.31543;95832.44;;;;
2022/05/17 05:11:05;;;;;;;11.15;9.550001;;;;;;;12.39;93.31543;95832.44;;;;
2022/05/17 05:12:05;;;;;;;11.15;9.550001;;;;;;;12.39;93.31543;95832.44;;;;
2022/05/17 05:13:06;;;;;;;11.15;9.550001;;;;;;;12.39;93.31543;95832.44;;;;
2022/05/17 05:14:11;;;;;;;10.7;9.150002;;;;;;;12.58;93.40918;95849.69;;;;
2022/05/17 05:15:12;;;;;;;10.7;9.150002;;;;;;;12.58;93.40918;95849.69;;;;
2022/05/17 05:16:13;;;;;;;10.7;9.150002;;;;;;;12.58;93.40918;95849.69;;;;
2022/05/17 05:17:15;;;;;;;10.7;9.150002;;;;;;;12.58;93.40918;95849.69;;;;
2022/05/17 05:18:15;;;;;;;10.7;9.150002;;;;;;;12.58;93.40918;95849.69;;;;
2022/05/17 05:19:16;;;;;;;10.7;9.150002;;;;;;;12.58;93.40918;95849.69;;;;
2022/05/17 05:20:16;;;;;;;10.7;9.150002;;;;;;;12.58;93.40918;95849.69;;;;
2022/05/17 05:21:18;;;;;;;10.7;9.150002;;;;;;;12.58;93.40918;95849.69;;;;
2022/05/17 05:22:18;;;;;;;10.7;9.150002;;;;;;;12.58;93.40918;95849.69;;;;
2022/05/17 05:23:19;;;;;;;10.7;9.150002;;;;;;;12.58;93.40918;95849.69;;;;
2022/05/17 05:24:19;;;;;;;13.5;9.4;;;;;;;12.86;93.50293;95848.86;;;;
2022/05/17 05:25:20;;;;;;;13.5;9.4;;;;;;;12.86;93.50293;95848.86;;;;
2022/05/17 05:26:21;;;;;;;13.5;9.4;;;;;;;12.86;93.50293;95848.86;;;;
2022/05/17 05:27:21;;;;;;;13.5;9.4;;;;;;;12.86;93.50293;95848.86;;;;
2022/05/17 05:28:22;;;;;;;13.5;9.4;;;;;;;12.86;93.50293;95848.86;;;;
2022/05/17 05:29:23;;;;;;;13.5;9.4;;;;;;;12.86;93.50293;95848.86;;;;
2022/05/17 05:30:23;;;;;;;13.5;9.4;;;;;;;12.86;93.50293;95848.86;;;;
2022/05/17 05:31:24;;;;;;;13.5;9.4;;;;;;;12.86;93.50293;95848.86;;;;
2022/05/17 05:32:25;;;;;;;13.5;9.4;;;;;;;12.86;93.50293;95848.86;;;;
2022/05/17 05:33:25;;;;;;;13.5;9.4;;;;;;;12.86;93.50293;95848.86;;;;
2022/05/17 05:34:27;;;;;;;13.5;9.4;;;;;;;12.86;93.50293;95848.86;;;;
2022/05/17 05:35:28;;;;;;;12.3;9.35;;;;;;;13.36;93.41211;95847.15;;;;
2022/05/17 05:36:28;;;;;;;12.3;9.35;;;;;;;13.36;93.41211;95847.15;;;;
2022/05/17 05:37:29;;;;;;;12.3;9.35;;;;;;;13.36;93.41211;95847.15;;;;
2022/05/17 05:38:30;;;;;;;12.3;9.35;;;;;;;13.36;93.41211;95847.15;;;;
2022/05/17 05:39:31;;;;;;;12.3;9.35;;;;;;;13.36;93.41211;95847.15;;;;
2022/05/17 05:40:32;;;;;;;12.3;9.35;;;;;;;13.36;93.41211;95847.15;;;;
2022/05/17 05:41:32;;;;;;;12.3;9.35;;;;;;;13.36;93.41211;95847.15;;;;